createdAt,value
2024-01-30T00:00:02.229Z,73.49
2024-01-30T00:02:33.724Z,73.57
2024-01-30T00:05:01.869Z,73.65
2024-01-30T00:07:30.107Z,73.62
2024-01-30T00:09:58.294Z,73.75
2024-01-30T00:12:27.719Z,73.71
2024-01-30T00:14:57.439Z,73.70
2024-01-30T00:17:27.339Z,73.62
2024-01-30T00:19:55.510Z,73.74
2024-01-30T00:22:23.744Z,74.11
2024-01-30T00:24:51.934Z,74.06
2024-01-30T00:27:20.058Z,73.96
2024-01-30T00:29:48.067Z,74.24
2024-01-30T00:32:16.143Z,74.22
2024-01-30T00:34:44.477Z,74.23
2024-01-30T00:37:13.063Z,74.22
2024-01-30T00:39:41.301Z,74.30
2024-01-30T00:42:11.910Z,74.44
2024-01-30T00:44:40.430Z,74.60
2024-01-30T00:47:08.537Z,74.65
2024-01-30T00:49:37.704Z,74.62
2024-01-30T00:52:06.120Z,74.44
2024-01-30T00:54:34.336Z,74.35
2024-01-30T00:57:02.443Z,74.27
2024-01-30T00:59:30.540Z,74.25
2024-01-30T01:02:48.304Z,74.40
2024-01-30T01:05:16.449Z,74.35
2024-01-30T01:07:44.777Z,74.52
2024-01-30T01:10:14.856Z,74.81
2024-01-30T01:12:43.639Z,74.91
2024-01-30T01:15:11.868Z,74.71
2024-01-30T01:17:41.366Z,74.57
2024-01-30T01:20:11.743Z,74.56
2024-01-30T01:22:39.894Z,74.53
2024-01-30T01:25:09.632Z,74.51
2024-01-30T01:27:41.756Z,74.56
2024-01-30T01:30:11.698Z,74.56
2024-01-30T01:32:40.163Z,74.67
2024-01-30T01:35:08.774Z,74.68
2024-01-30T01:37:36.951Z,74.70
2024-01-30T01:40:05.648Z,74.84
2024-01-30T01:42:33.728Z,74.88
2024-01-30T01:45:02.162Z,74.96
2024-01-30T01:47:30.721Z,75.21
2024-01-30T01:49:59.036Z,75.37
2024-01-30T01:52:27.374Z,75.38
2024-01-30T01:54:55.684Z,75.54
2024-01-30T01:57:23.955Z,75.60
2024-01-30T01:59:52.407Z,75.98
2024-01-30T02:02:21.861Z,76.12
2024-01-30T02:04:50.234Z,76.19
2024-01-30T02:07:18.701Z,76.20
2024-01-30T02:09:46.831Z,76.16
2024-01-30T02:12:14.966Z,76.25
2024-01-30T02:14:50.061Z,76.37
2024-01-30T02:17:18.680Z,76.62
2024-01-30T02:19:46.920Z,76.46
2024-01-30T02:22:15.949Z,76.69
2024-01-30T02:24:44.150Z,76.89
2024-01-30T02:27:12.284Z,76.88
2024-01-30T02:29:40.295Z,76.87
2024-01-30T02:32:08.786Z,77.18
2024-01-30T02:34:36.949Z,77.11
2024-01-30T02:37:05.485Z,77.14
2024-01-30T02:39:33.654Z,77.10
2024-01-30T02:42:01.803Z,77.00
2024-01-30T02:44:29.827Z,77.21
2024-01-30T02:46:57.896Z,77.31
2024-01-30T02:49:26.045Z,77.48
2024-01-30T02:51:56.329Z,77.41
2024-01-30T02:54:24.427Z,77.43
2024-01-30T02:56:52.630Z,77.47
2024-01-30T02:59:20.589Z,77.61
2024-01-30T03:01:49.225Z,77.57
2024-01-30T03:04:17.777Z,77.65
2024-01-30T03:06:48.317Z,77.68
2024-01-30T03:09:19.794Z,77.71
2024-01-30T03:11:47.920Z,77.66
2024-01-30T03:14:15.963Z,77.52
2024-01-30T03:16:44.068Z,77.75
2024-01-30T03:19:12.280Z,78.13
2024-01-30T03:21:40.602Z,78.17
2024-01-30T03:24:08.752Z,78.42
2024-01-30T03:26:37.034Z,78.61
2024-01-30T03:29:05.274Z,78.77
2024-01-30T03:31:33.438Z,79.32
2024-01-30T03:34:02.720Z,79.25
2024-01-30T03:36:33.964Z,79.35
2024-01-30T03:39:02.444Z,79.57
2024-01-30T03:41:30.740Z,79.24
2024-01-30T03:43:59.387Z,79.03
2024-01-30T03:46:27.590Z,79.20
2024-01-30T03:48:55.933Z,79.27
2024-01-30T03:51:24.161Z,79.30
2024-01-30T03:53:52.257Z,79.27
2024-01-30T03:56:20.364Z,79.33
2024-01-30T03:58:48.480Z,79.17
2024-01-30T04:01:16.798Z,79.23
2024-01-30T04:03:45.686Z,79.30
2024-01-30T04:06:14.293Z,79.18
2024-01-30T04:08:42.320Z,79.27
2024-01-30T04:11:10.405Z,79.13
2024-01-30T04:13:38.553Z,78.98
2024-01-30T04:16:07.299Z,78.85
2024-01-30T04:18:35.420Z,78.71
2024-01-30T04:21:03.588Z,78.33
2024-01-30T04:23:31.717Z,78.09
2024-01-30T04:25:59.927Z,78.18
2024-01-30T04:28:28.179Z,78.19
2024-01-30T04:30:56.265Z,77.83
2024-01-30T04:33:24.529Z,78.00
2024-01-30T04:35:53.122Z,77.71
2024-01-30T04:38:21.188Z,77.57
2024-01-30T04:40:49.328Z,77.65
2024-01-30T04:43:17.486Z,77.72
2024-01-30T04:45:45.830Z,77.80
2024-01-30T04:48:14.084Z,77.94
2024-01-30T04:50:42.194Z,77.90
2024-01-30T04:53:10.355Z,77.74
2024-01-30T04:55:38.416Z,77.74
2024-01-30T04:58:06.546Z,77.93
2024-01-30T05:00:34.602Z,78.11
2024-01-30T05:03:02.645Z,78.23
2024-01-30T05:05:30.759Z,78.14
2024-01-30T05:07:58.842Z,78.29
2024-01-30T05:10:27.216Z,78.53
2024-01-30T05:12:55.355Z,78.55
2024-01-30T05:15:23.502Z,78.56
2024-01-30T05:17:51.761Z,78.70
2024-01-30T05:20:21.366Z,78.88
2024-01-30T05:22:49.419Z,78.83
2024-01-30T05:25:17.520Z,79.19
2024-01-30T05:27:45.797Z,79.34
2024-01-30T05:30:14.124Z,79.59
2024-01-30T05:32:42.476Z,79.81
2024-01-30T05:35:10.630Z,79.80
2024-01-30T05:37:38.651Z,79.99
2024-01-30T05:40:07.499Z,79.90
2024-01-30T05:42:35.477Z,79.73
2024-01-30T05:45:03.784Z,79.99
2024-01-30T05:47:32.027Z,80.29
2024-01-30T05:50:00.241Z,80.12
2024-01-30T05:52:28.592Z,80.03
2024-01-30T05:54:56.789Z,80.04
2024-01-30T05:57:24.874Z,80.18
2024-01-30T05:59:53.324Z,79.83
2024-01-30T06:02:21.329Z,79.98
2024-01-30T06:04:49.964Z,79.63
2024-01-30T06:07:18.951Z,79.56
2024-01-30T06:09:47.915Z,79.55
2024-01-30T06:12:16.115Z,79.63
2024-01-30T06:14:47.340Z,79.52
2024-01-30T06:17:16.055Z,79.50
2024-01-30T06:19:44.176Z,79.43
2024-01-30T06:22:12.697Z,79.18
2024-01-30T06:24:40.958Z,79.09
2024-01-30T06:27:09.205Z,79.00
2024-01-30T06:29:37.388Z,79.12
2024-01-30T06:32:06.033Z,79.19
2024-01-30T06:34:48.077Z,79.32
2024-01-30T06:37:21.308Z,79.35
2024-01-30T06:39:49.405Z,79.38
2024-01-30T06:42:17.483Z,79.59
2024-01-30T06:44:45.506Z,79.70
2024-01-30T06:47:14.361Z,80.07
2024-01-30T06:49:43.353Z,79.63
2024-01-30T06:52:12.048Z,79.20
2024-01-30T06:54:41.113Z,78.89
2024-01-30T06:57:12.869Z,78.82
2024-01-30T06:59:45.282Z,78.50
2024-01-30T07:02:13.687Z,78.54
2024-01-30T07:04:46.845Z,78.52
2024-01-30T07:07:16.354Z,78.48
2024-01-30T07:09:45.236Z,78.25
2024-01-30T07:12:13.655Z,77.92
2024-01-30T07:14:41.895Z,78.07
2024-01-30T07:17:10.034Z,78.18
2024-01-30T07:19:38.216Z,78.03
2024-01-30T07:22:06.487Z,77.86
2024-01-30T07:24:34.795Z,77.97
2024-01-30T07:27:03.411Z,77.90
2024-01-30T07:29:31.650Z,78.05
2024-01-30T07:31:59.690Z,78.13
2024-01-30T07:35:06.711Z,77.89
2024-01-30T07:37:36.972Z,77.90
2024-01-30T07:40:05.777Z,77.72
2024-01-30T07:42:34.611Z,77.21
2024-01-30T07:45:02.759Z,76.99
2024-01-30T07:47:30.909Z,76.85
2024-01-30T07:49:59.053Z,76.65
2024-01-30T07:52:27.305Z,76.47
2024-01-30T07:54:56.995Z,76.13
2024-01-30T07:57:25.839Z,76.08
2024-01-30T08:03:19.743Z,76.03
2024-01-30T08:05:47.955Z,75.88
2024-01-30T08:08:16.139Z,76.02
2024-01-30T08:10:44.357Z,76.52
2024-01-30T08:13:12.519Z,76.38
2024-01-30T08:15:40.643Z,75.71
2024-01-30T08:18:08.771Z,75.35
2024-01-30T08:20:36.892Z,75.13
2024-01-30T08:23:05.129Z,74.05
2024-01-30T08:25:33.346Z,73.60
2024-01-30T08:28:01.620Z,73.29
2024-01-30T08:30:29.670Z,72.90
2024-01-30T08:32:57.692Z,72.53
2024-01-30T08:35:26.198Z,72.30
2024-01-30T08:37:56.022Z,72.45
2024-01-30T08:40:24.578Z,72.04
2024-01-30T08:42:52.818Z,72.13
2024-01-30T08:45:20.949Z,72.54
2024-01-30T08:47:49.422Z,72.25
2024-01-30T08:50:17.695Z,72.32
2024-01-30T08:52:47.610Z,72.22
2024-01-30T08:55:16.551Z,71.98
2024-01-30T08:57:44.763Z,71.93
2024-01-30T09:00:13.810Z,71.43
2024-01-30T09:02:42.261Z,71.67
2024-01-30T09:05:10.836Z,71.51
2024-01-30T09:07:41.911Z,71.78
2024-01-30T09:10:13.024Z,71.30
2024-01-30T09:12:42.649Z,70.07
2024-01-30T09:15:11.342Z,69.84
2024-01-30T09:17:39.491Z,69.69
2024-01-30T09:20:08.501Z,69.82
2024-01-30T09:22:36.744Z,69.27
2024-01-30T09:25:05.498Z,69.30
2024-01-30T09:27:33.516Z,68.71
2024-01-30T09:30:01.497Z,68.79
2024-01-30T09:32:29.654Z,69.16
2024-01-30T09:34:57.912Z,69.48
2024-01-30T09:37:27.692Z,69.92
2024-01-30T09:39:56.130Z,69.72
2024-01-30T09:42:33.259Z,69.69
2024-01-30T09:45:02.469Z,69.58
2024-01-30T09:47:42.337Z,68.72
2024-01-30T09:50:14.996Z,67.78
2024-01-30T09:53:00.816Z,67.42
2024-01-30T09:55:47.352Z,67.32
2024-01-30T09:58:15.660Z,66.84
2024-01-30T10:00:44.060Z,67.37
2024-01-30T10:03:12.511Z,67.81
2024-01-30T10:05:41.712Z,67.58
2024-01-30T10:08:10.073Z,67.64
2024-01-30T10:10:38.444Z,67.07
2024-01-30T10:13:06.677Z,66.24
2024-01-30T10:15:36.662Z,66.23
2024-01-30T10:18:07.638Z,65.38
2024-01-30T10:20:35.940Z,65.06
2024-01-30T10:23:05.043Z,65.46
2024-01-30T10:25:34.039Z,65.44
2024-01-30T10:28:02.224Z,65.35
2024-01-30T10:30:30.288Z,65.75
2024-01-30T10:32:58.804Z,66.32
2024-01-30T10:35:27.566Z,65.59
2024-01-30T10:37:59.880Z,65.11
2024-01-30T10:40:29.873Z,65.50
2024-01-30T10:43:02.353Z,63.96
2024-01-30T10:45:34.161Z,63.59
2024-01-30T10:48:04.998Z,63.57
2024-01-30T10:50:34.381Z,63.41
2024-01-30T10:53:03.777Z,63.94
2024-01-30T10:55:32.990Z,64.09
2024-01-30T10:58:01.528Z,63.24
2024-01-30T11:00:40.267Z,63.49
2024-01-30T11:03:19.042Z,63.09
2024-01-30T11:05:51.245Z,62.22
2024-01-30T11:08:31.551Z,62.31
2024-01-30T11:11:00.174Z,62.62
2024-01-30T11:13:30.907Z,61.86
2024-01-30T11:16:04.225Z,61.37
2024-01-30T11:18:34.185Z,61.11
2024-01-30T11:21:03.313Z,60.37
2024-01-30T11:23:34.999Z,59.89
2024-01-30T11:26:05.097Z,60.26
2024-01-30T11:28:37.786Z,59.80
2024-01-30T11:31:11.160Z,60.20
2024-01-30T11:33:57.570Z,60.14
2024-01-30T11:36:28.149Z,60.45
2024-01-30T11:38:56.231Z,60.69
2024-01-30T11:41:26.350Z,60.08
2024-01-30T11:43:54.938Z,59.00
2024-01-30T11:46:26.657Z,59.24
2024-01-30T11:48:54.986Z,59.84
2024-01-30T11:51:23.195Z,60.00
2024-01-30T11:53:52.688Z,59.13
2024-01-30T11:56:20.925Z,58.47
2024-01-30T11:58:50.045Z,58.38
2024-01-30T12:01:18.696Z,57.81
2024-01-30T12:03:53.649Z,58.70
2024-01-30T12:06:22.024Z,59.40
2024-01-30T12:09:01.142Z,59.10
2024-01-30T12:11:31.156Z,58.08
2024-01-30T12:13:59.923Z,56.42
2024-01-30T12:16:28.707Z,56.97
2024-01-30T12:19:03.556Z,55.89
2024-01-30T12:21:54.699Z,55.84
2024-01-30T12:24:25.401Z,55.52
2024-01-30T12:26:54.180Z,56.46
2024-01-30T12:29:23.249Z,57.38
2024-01-30T12:31:55.620Z,57.10
2024-01-30T12:34:26.508Z,57.10
2024-01-30T12:36:54.906Z,55.90
2024-01-30T12:42:51.345Z,56.51
2024-01-30T12:45:24.044Z,56.70
2024-01-30T12:47:53.157Z,55.43
2024-01-30T12:50:21.769Z,55.80
2024-01-30T12:52:50.555Z,55.13
2024-01-30T12:55:19.400Z,55.36
2024-01-30T12:57:47.867Z,55.17
2024-01-30T13:00:18.652Z,55.91
2024-01-30T13:02:47.100Z,56.46
2024-01-30T13:05:16.489Z,56.93
2024-01-30T13:07:56.152Z,57.34
2024-01-30T13:13:49.627Z,56.96
2024-01-30T13:16:18.550Z,56.13
2024-01-30T13:18:46.738Z,55.74
2024-01-30T13:21:15.022Z,55.49
2024-01-30T13:23:43.606Z,54.93
2024-01-30T13:26:12.342Z,55.52
2024-01-30T13:28:40.516Z,55.52
2024-01-30T13:31:08.618Z,54.83
2024-01-30T13:33:36.762Z,55.18
2024-01-30T13:36:05.227Z,55.46
2024-01-30T13:38:34.233Z,55.93
2024-01-30T13:41:05.229Z,56.23
2024-01-30T13:43:33.796Z,56.45
2024-01-30T13:46:04.358Z,55.94
2024-01-30T13:48:33.110Z,56.07
2024-01-30T13:51:01.834Z,56.16
2024-01-30T13:53:32.373Z,56.02
2024-01-30T13:56:00.926Z,56.03
2024-01-30T13:58:29.310Z,56.15
2024-01-30T14:00:57.501Z,55.78
2024-01-30T14:03:26.775Z,56.00
2024-01-30T14:05:55.200Z,56.53
2024-01-30T14:08:29.078Z,56.76
2024-01-30T14:10:58.718Z,56.82
2024-01-30T14:13:35.333Z,57.01
2024-01-30T14:16:43.530Z,57.44
2024-01-30T14:19:29.642Z,57.44
2024-01-30T14:21:57.915Z,57.46
2024-01-30T14:24:26.416Z,57.68
2024-01-30T14:26:54.645Z,57.63
2024-01-30T14:29:22.888Z,57.69
2024-01-30T14:31:54.179Z,57.60
2024-01-30T14:34:22.282Z,57.60
2024-01-30T14:40:17.942Z,58.33
2024-01-30T14:42:46.875Z,58.51
2024-01-30T14:45:17.899Z,58.69
2024-01-30T14:47:47.128Z,58.80
2024-01-30T14:50:17.890Z,59.08
2024-01-30T14:52:47.205Z,59.28
2024-01-30T14:55:15.911Z,59.57
2024-01-30T14:58:16.217Z,59.90
2024-01-30T15:01:33.734Z,60.11
2024-01-30T15:07:17.394Z,60.54
2024-01-30T15:09:50.584Z,60.66
2024-01-30T15:12:26.653Z,60.99
2024-01-30T15:14:54.851Z,61.19
2024-01-30T15:17:23.109Z,61.32
2024-01-30T15:19:52.554Z,61.43
2024-01-30T15:22:22.036Z,61.62
2024-01-30T15:24:50.117Z,61.91
2024-01-30T15:27:20.832Z,62.07
2024-01-30T15:29:48.911Z,62.17
2024-01-30T15:32:17.080Z,62.48
2024-01-30T15:34:45.274Z,62.84
2024-01-30T15:37:13.532Z,63.09
2024-01-30T15:39:41.623Z,63.56
2024-01-30T15:42:09.812Z,63.79
2024-01-30T15:44:37.932Z,64.08
2024-01-30T15:47:06.215Z,64.24
2024-01-30T15:49:34.483Z,64.46
2024-01-30T15:52:05.188Z,64.63
2024-01-30T15:54:33.368Z,64.70
2024-01-30T15:57:01.351Z,64.83
2024-01-30T15:59:29.681Z,65.09
2024-01-30T16:01:57.924Z,65.08
2024-01-30T16:04:26.320Z,65.21
2024-01-30T16:06:54.618Z,65.27
2024-01-30T16:09:25.999Z,65.37
2024-01-30T16:11:54.058Z,65.64
2024-01-30T16:14:22.174Z,65.76
2024-01-30T16:16:50.382Z,65.94
2024-01-30T16:19:18.591Z,65.87
2024-01-30T16:21:49.841Z,66.05
2024-01-30T16:24:34.554Z,66.07
2024-01-30T16:27:02.884Z,66.14
2024-01-30T16:29:32.291Z,66.22
2024-01-30T16:32:03.810Z,66.30
2024-01-30T16:34:32.018Z,66.49
2024-01-30T16:37:23.413Z,66.51
2024-01-30T16:40:01.499Z,66.66
2024-01-30T16:42:33.081Z,66.85
2024-01-30T16:45:03.695Z,67.06
2024-01-30T16:47:32.960Z,67.32
2024-01-30T16:50:10.690Z,67.11
2024-01-30T16:52:41.856Z,67.28
2024-01-30T16:55:10.102Z,67.56
2024-01-30T16:57:39.133Z,67.78
2024-01-30T17:00:08.558Z,67.83
2024-01-30T17:02:42.404Z,67.91
2024-01-30T17:05:23.262Z,68.04
2024-01-30T17:11:20.565Z,68.36
2024-01-30T17:13:50.989Z,68.38
2024-01-30T17:16:22.451Z,68.51
2024-01-30T17:18:51.082Z,68.71
2024-01-30T17:21:21.175Z,68.84
2024-01-30T17:23:51.682Z,68.81
2024-01-30T17:26:22.511Z,68.96
2024-01-30T17:28:51.621Z,69.20
2024-01-30T17:31:19.934Z,69.26
2024-01-30T17:33:52.622Z,69.34
2024-01-30T17:36:26.534Z,69.43
2024-01-30T17:39:02.291Z,69.45
2024-01-30T17:41:31.114Z,69.56
2024-01-30T17:44:02.278Z,69.76
2024-01-30T17:46:30.427Z,69.78
2024-01-30T17:49:01.540Z,69.86
2024-01-30T17:51:32.081Z,69.88
2024-01-30T17:54:00.244Z,69.92
2024-01-30T17:56:28.543Z,70.10
2024-01-30T17:58:56.911Z,70.04
2024-01-30T18:01:25.169Z,70.09
2024-01-30T18:03:59.478Z,70.17
2024-01-30T18:06:40.780Z,70.37
2024-01-30T18:09:08.971Z,70.26
2024-01-30T18:11:37.933Z,70.36
2024-01-30T18:14:08.415Z,70.39
2024-01-30T18:16:36.538Z,70.44
2024-01-30T18:19:08.136Z,70.41
2024-01-30T18:21:39.603Z,70.52
2024-01-30T18:24:10.124Z,70.55
2024-01-30T18:26:41.617Z,70.70
2024-01-30T18:29:24.044Z,70.89
2024-01-30T18:31:52.287Z,70.95
2024-01-30T18:34:26.453Z,71.10
2024-01-30T18:37:04.560Z,71.21
2024-01-30T18:39:32.725Z,71.37
2024-01-30T18:42:01.203Z,71.49
2024-01-30T18:44:33.163Z,71.53
2024-01-30T18:47:04.515Z,71.52
2024-01-30T18:49:36.864Z,71.73
2024-01-30T18:52:06.189Z,71.81
2024-01-30T18:54:36.697Z,71.90
2024-01-30T18:57:04.895Z,71.91
2024-01-30T18:59:33.114Z,72.01
2024-01-30T19:02:01.310Z,72.25
2024-01-30T19:04:32.633Z,72.60
2024-01-30T19:07:02.771Z,72.82
2024-01-30T19:09:32.083Z,73.13
2024-01-30T19:12:05.866Z,73.53
2024-01-30T19:14:35.348Z,73.59
2024-01-30T19:17:04.526Z,73.62
2024-01-30T19:19:32.597Z,73.81
2024-01-30T19:22:00.781Z,74.05
2024-01-30T19:24:36.437Z,74.25
2024-01-30T19:27:04.809Z,74.12
2024-01-30T19:29:34.120Z,74.15
2024-01-30T19:32:07.727Z,74.25
2024-01-30T19:34:37.059Z,74.41
2024-01-30T19:37:11.868Z,74.50
2024-01-30T19:40:02.227Z,74.40
2024-01-30T19:42:30.836Z,74.39
2024-01-30T19:45:00.126Z,74.57
2024-01-30T19:47:28.445Z,74.41
2024-01-30T19:49:56.881Z,74.29
2024-01-30T19:52:26.704Z,73.93
2024-01-30T19:54:57.891Z,73.88
2024-01-30T19:57:33.177Z,73.74
2024-01-30T20:00:04.942Z,74.02
2024-01-30T20:02:34.153Z,74.23
2024-01-30T20:05:03.681Z,74.21
2024-01-30T20:07:31.864Z,74.18
2024-01-30T20:10:00.063Z,74.14
2024-01-30T20:12:28.326Z,74.02
2024-01-30T20:14:56.398Z,73.89
2024-01-30T20:17:24.727Z,73.84
2024-01-30T20:20:04.234Z,73.74
2024-01-30T20:22:32.438Z,73.74
2024-01-30T20:25:07.101Z,73.73
2024-01-30T20:27:41.778Z,73.73
2024-01-30T20:30:13.573Z,73.74
2024-01-30T20:32:41.903Z,73.57
2024-01-30T20:35:10.141Z,73.61
2024-01-30T20:37:41.518Z,73.69
2024-01-30T20:40:11.559Z,73.86
2024-01-30T20:42:40.277Z,74.06
2024-01-30T20:45:09.256Z,74.12
2024-01-30T20:47:39.213Z,74.30
2024-01-30T20:50:07.966Z,74.41
2024-01-30T20:52:38.844Z,74.46
2024-01-30T20:55:10.159Z,74.56
2024-01-30T20:57:38.399Z,74.57
2024-01-30T21:00:11.107Z,74.65
2024-01-30T21:02:43.157Z,74.65
2024-01-30T21:05:18.773Z,74.80
2024-01-30T21:07:51.149Z,74.82
2024-01-30T21:10:19.565Z,74.82
2024-01-30T21:12:47.731Z,74.97
2024-01-30T21:15:18.973Z,75.23
2024-01-30T21:17:48.427Z,75.59
2024-01-30T21:20:18.532Z,75.87
2024-01-30T21:22:46.820Z,75.86
2024-01-30T21:25:18.299Z,75.96
2024-01-30T21:27:46.413Z,76.04
2024-01-30T21:30:14.806Z,76.01
2024-01-30T21:32:45.310Z,75.99
2024-01-30T21:35:26.508Z,76.19
2024-01-30T21:37:55.163Z,76.21
2024-01-30T21:40:26.768Z,76.20
2024-01-30T21:42:54.886Z,76.32
2024-01-30T21:48:41.722Z,76.43
2024-01-30T21:51:12.176Z,76.58
2024-01-30T21:53:40.430Z,76.66
2024-01-30T21:56:11.358Z,76.83
2024-01-30T21:58:39.593Z,76.84
2024-01-30T22:01:08.089Z,76.91
2024-01-30T22:03:36.850Z,76.95
2024-01-30T22:06:05.745Z,76.94
2024-01-30T22:08:33.950Z,77.10
2024-01-30T22:11:07.083Z,77.18
2024-01-30T22:13:35.677Z,77.10
2024-01-30T22:16:04.086Z,77.23
2024-01-30T22:18:38.365Z,77.29
2024-01-30T22:23:54.766Z,77.34
2024-01-30T22:26:28.618Z,77.41
2024-01-30T22:29:04.697Z,77.54
2024-01-30T22:31:34.982Z,77.51
2024-01-30T22:34:03.532Z,77.55
2024-01-30T22:36:32.436Z,77.61
2024-01-30T22:39:06.022Z,77.63
2024-01-30T22:41:36.894Z,77.71
2024-01-30T22:44:05.677Z,77.72
2024-01-30T22:46:34.179Z,77.87
2024-01-30T22:49:02.534Z,77.95
2024-01-30T22:51:30.757Z,77.98
2024-01-30T22:54:03.918Z,78.29
2024-01-30T22:56:32.052Z,78.43
2024-01-30T22:59:03.796Z,78.42
2024-01-30T23:01:32.625Z,78.54
2024-01-30T23:04:01.207Z,78.66
2024-01-30T23:06:31.716Z,78.61
2024-01-30T23:09:05.513Z,78.72
2024-01-30T23:11:33.594Z,78.75
2024-01-30T23:14:01.675Z,78.79
2024-01-30T23:16:29.917Z,78.95
2024-01-30T23:18:58.552Z,79.09
2024-01-30T23:21:29.438Z,79.09
2024-01-30T23:23:57.457Z,79.12
2024-01-30T23:26:25.550Z,79.16
2024-01-30T23:28:53.692Z,79.17
2024-01-30T23:31:23.342Z,79.18
2024-01-30T23:33:51.703Z,79.38
2024-01-30T23:36:19.916Z,79.69
2024-01-30T23:38:48.240Z,79.89
2024-01-30T23:41:16.885Z,79.99
2024-01-30T23:43:45.003Z,80.10
2024-01-30T23:46:13.213Z,80.07
2024-01-30T23:48:41.407Z,80.37
2024-01-30T23:51:09.543Z,80.73
2024-01-30T23:53:37.694Z,80.75
2024-01-30T23:56:06.304Z,80.92
2024-01-30T23:58:34.822Z,80.89
